Time,TemperatureF,DewpointF,PressureIn,WindDirection,WindDirectionDegrees,WindSpeedMPH,WindSpeedGustMPH,Humidity,HourlyPrecipIn,Conditions,Clouds,dailyrainin,SolarRadiationWatts/m^2,SoftwareType,DateUTC
2013-06-07 00:05:00,43.8,36.0,29.86,North,360,0.0,0.0,74,0.00,,,0.00,0,weatherlink.com 1.10,2013-06-07 06:05:00,
2013-06-07 00:20:00,42.9,36.0,29.86,North,360,0.0,0.0,75,0.00,,,0.00,0,weatherlink.com 1.10,2013-06-07 06:20:00,
2013-06-07 00:35:00,43.6,36.0,29.86,North,360,0.0,0.0,74,0.00,,,0.00,0,weatherlink.com 1.10,2013-06-07 06:35:00,
2013-06-07 00:50:00,43.5,36.0,29.86,North,360,0.0,0.0,76,0.00,,,0.00,0,weatherlink.com 1.10,2013-06-07 06:50:00,
2013-06-07 01:05:00,42.4,36.0,29.85,North,360,0.0,0.0,78,0.00,,,0.00,0,weatherlink.com 1.10,2013-06-07 07:05:00,
2013-06-07 01:20:00,41.7,36.0,29.85,North,360,0.0,0.0,79,0.00,,,0.00,0,weatherlink.com 1.10,2013-06-07 07:20:00,
2013-06-07 01:35:00,41.6,36.0,29.85,North,360,0.0,0.0,79,0.00,,,0.00,0,weatherlink.com 1.10,2013-06-07 07:35:00,
2013-06-07 01:50:00,42.2,36.0,29.85,North,360,0.0,0.0,78,0.00,,,0.00,0,weatherlink.com 1.10,2013-06-07 07:50:00,
2013-06-07 02:05:00,42.5,36.0,29.85,North,360,0.0,0.0,77,0.00,,,0.00,0,weatherlink.com 1.10,2013-06-07 08:05:00,
2013-06-07 02:20:00,41.8,36.0,29.85,SE,136,0.0,0.0,80,0.00,,,0.00,0,weatherlink.com 1.10,2013-06-07 08:20:00,
2013-06-07 02:35:00,41.1,36.0,29.84,SE,135,0.0,0.0,81,0.00,,,0.00,0,weatherlink.com 1.10,2013-06-07 08:35:00,
2013-06-07 02:50:00,40.8,35.0,29.84,SE,135,0.0,0.0,81,0.00,,,0.00,0,weatherlink.com 1.10,2013-06-07 08:50:00,
2013-06-07 03:05:00,40.4,36.0,29.84,SE,135,0.0,0.0,83,0.00,,,0.00,0,weatherlink.com 1.10,2013-06-07 09:05:00,
2013-06-07 03:20:00,40.3,36.0,29.84,SE,139,0.0,0.0,83,0.00,,,0.00,0,weatherlink.com 1.10,2013-06-07 09:20:00,
2013-06-07 03:35:00,40.2,35.0,29.83,SSE,147,0.0,0.0,82,0.00,,,0.00,0,weatherlink.com 1.10,2013-06-07 09:35:00,
2013-06-07 03:50:00,40.3,36.0,29.83,SE,135,0.0,0.0,83,0.00,,,0.00,0,weatherlink.com 1.10,2013-06-07 09:50:00,
2013-06-07 04:05:00,40.2,36.0,29.83,SE,135,0.0,0.0,84,0.00,,,0.00,0,weatherlink.com 1.10,2013-06-07 10:05:00,
2013-06-07 04:20:00,40.4,36.0,29.83,SE,135,0.0,0.0,85,0.00,,,0.00,0,weatherlink.com 1.10,2013-06-07 10:20:00,
2013-06-07 04:35:00,39.5,35.0,29.84,SE,135,0.0,0.0,85,0.00,,,0.00,0,weatherlink.com 1.10,2013-06-07 10:35:00,
2013-06-07 04:50:00,39.4,36.0,29.84,SE,135,0.0,0.0,87,0.00,,,0.00,0,weatherlink.com 1.10,2013-06-07 10:50:00,
2013-06-07 05:05:00,39.2,35.0,29.84,SE,136,0.0,0.0,85,0.00,,,0.00,0,weatherlink.com 1.10,2013-06-07 11:05:00,
2013-06-07 05:20:00,39.5,35.0,29.83,SE,138,0.0,0.0,85,0.00,,,0.00,0,weatherlink.com 1.10,2013-06-07 11:20:00,
2013-06-07 05:35:00,40.0,36.0,29.84,SE,138,0.0,0.0,85,0.00,,,0.00,0,weatherlink.com 1.10,2013-06-07 11:35:00,
2013-06-07 05:50:00,39.6,36.0,29.84,SE,137,0.0,0.0,85,0.00,,,0.00,0,weatherlink.com 1.10,2013-06-07 11:50:00,
2013-06-07 06:05:00,39.7,36.0,29.84,SE,137,0.0,0.0,85,0.00,,,0.00,7,weatherlink.com 1.10,2013-06-07 12:05:00,
2013-06-07 06:21:00,39.7,36.0,29.84,SE,137,0.0,0.0,85,0.00,,,0.00,11,weatherlink.com 1.10,2013-06-07 12:21:00,
2013-06-07 06:36:00,39.6,36.0,29.84,SE,137,0.0,0.0,85,0.00,,,0.00,14,weatherlink.com 1.10,2013-06-07 12:36:00,
2013-06-07 06:51:00,40.3,36.0,29.85,SE,136,0.0,0.0,85,0.00,,,0.00,14,weatherlink.com 1.10,2013-06-07 12:51:00,
2013-06-07 07:06:00,40.0,36.0,29.84,SE,135,0.0,0.0,86,0.00,,,0.00,26,weatherlink.com 1.10,2013-06-07 13:06:00,
2013-06-07 07:21:00,41.8,38.0,29.84,North,360,0.0,0.0,85,0.00,,,0.00,37,weatherlink.com 1.10,2013-06-07 13:21:00,
2013-06-07 07:36:00,42.1,37.0,29.84,North,360,0.0,0.0,82,0.00,,,0.00,40,weatherlink.com 1.10,2013-06-07 13:36:00,
2013-06-07 07:51:00,42.5,37.0,29.85,North,360,0.0,0.0,82,0.00,,,0.00,47,weatherlink.com 1.10,2013-06-07 13:51:00,
2013-06-07 08:06:00,43.8,38.0,29.84,North,360,0.0,0.0,80,0.00,,,0.00,53,weatherlink.com 1.10,2013-06-07 14:06:00,
2013-06-07 08:21:00,45.9,39.0,29.84,North,360,0.0,0.0,76,0.00,,,0.00,63,weatherlink.com 1.10,2013-06-07 14:21:00,
2013-06-07 08:36:00,47.9,39.0,29.84,SE,135,0.0,0.0,72,0.00,,,0.00,84,weatherlink.com 1.10,2013-06-07 14:36:00,
2013-06-07 08:51:00,50.5,41.0,29.84,SE,135,0.0,1.0,69,0.00,,,0.00,527,weatherlink.com 1.10,2013-06-07 14:51:00,
2013-06-07 09:06:00,53.1,42.0,29.83,SE,135,0.0,0.0,65,0.00,,,0.00,580,weatherlink.com 1.10,2013-06-07 15:06:00,
2013-06-07 09:21:00,55.7,42.0,29.82,SSE,147,0.0,3.0,60,0.00,,,0.00,626,weatherlink.com 1.10,2013-06-07 15:21:00,
2013-06-07 09:36:00,57.5,39.0,29.82,SSW,213,0.0,3.0,51,0.00,,,0.00,673,weatherlink.com 1.10,2013-06-07 15:36:00,
2013-06-07 09:51:00,59.1,40.0,29.81,WSW,258,0.0,3.0,50,0.00,,,0.00,719,weatherlink.com 1.10,2013-06-07 15:51:00,
2013-06-07 10:06:00,60.0,38.0,29.81,West,265,2.0,5.0,44,0.00,,,0.00,761,weatherlink.com 1.10,2013-06-07 16:06:00,
2013-06-07 10:21:00,61.8,41.0,29.80,WSW,250,2.0,4.0,47,0.00,,,0.00,817,weatherlink.com 1.10,2013-06-07 16:21:00,
2013-06-07 10:36:00,63.7,37.0,29.80,West,279,1.0,7.0,38,0.00,,,0.00,492,weatherlink.com 1.10,2013-06-07 16:36:00,
2013-06-07 10:51:00,64.6,38.0,29.79,West,281,2.0,4.0,38,0.00,,,0.00,928,weatherlink.com 1.10,2013-06-07 16:51:00,
2013-06-07 11:06:00,66.5,37.0,29.78,SW,231,4.0,4.0,34,0.00,,,0.00,914,weatherlink.com 1.10,2013-06-07 17:06:00,
2013-06-07 11:22:00,68.6,36.0,29.77,WSW,252,1.0,5.0,30,0.00,,,0.00,944,weatherlink.com 1.10,2013-06-07 17:22:00,
2013-06-07 11:37:00,68.4,36.0,29.77,NW,305,3.0,5.0,30,0.00,,,0.00,963,weatherlink.com 1.10,2013-06-07 17:37:00,
2013-06-07 11:52:00,67.7,33.0,29.76,WNW,290,2.0,7.0,28,0.00,,,0.00,114,weatherlink.com 1.10,2013-06-07 17:52:00,
2013-06-07 12:07:00,69.3,34.0,29.76,SW,224,2.0,8.0,27,0.00,,,0.00,1028,weatherlink.com 1.10,2013-06-07 18:07:00,
2013-06-07 12:22:00,70.7,29.0,29.75,WNW,297,3.0,5.0,21,0.00,,,0.00,997,weatherlink.com 1.10,2013-06-07 18:22:00,
2013-06-07 12:52:00,69.3,29.0,29.74,West,277,3.0,7.0,22,0.00,,,0.00,357,weatherlink.com 1.10,2013-06-07 18:52:00,
2013-06-07 13:07:00,67.6,29.0,29.74,West,279,4.0,6.0,24,0.00,,,0.00,341,weatherlink.com 1.10,2013-06-07 19:07:00,
2013-06-07 13:22:00,66.8,28.0,29.74,West,271,3.0,7.0,23,0.00,,,0.00,232,weatherlink.com 1.10,2013-06-07 19:22:00,
2013-06-07 13:37:00,65.7,28.0,29.75,WSW,255,2.0,5.0,24,0.00,,,0.00,232,weatherlink.com 1.10,2013-06-07 19:37:00,
2013-06-07 13:52:00,65.3,29.0,29.75,West,275,2.0,5.0,26,0.00,,,0.00,230,weatherlink.com 1.10,2013-06-07 19:52:00,
2013-06-07 14:07:00,64.6,29.0,29.75,WNW,295,4.0,7.0,26,0.00,,,0.00,171,weatherlink.com 1.10,2013-06-07 20:07:00,
2013-06-07 14:22:00,63.3,26.0,29.74,West,261,5.0,8.0,24,0.00,,,0.00,167,weatherlink.com 1.10,2013-06-07 20:22:00,
2013-06-07 14:37:00,63.5,25.0,29.73,West,269,5.0,9.0,23,0.00,,,0.00,192,weatherlink.com 1.10,2013-06-07 20:37:00,
2013-06-07 15:07:00,66.3,26.0,29.74,WSW,253,3.0,8.0,22,0.00,,,0.00,225,weatherlink.com 1.10,2013-06-07 21:07:00,
2013-06-07 15:22:00,62.1,28.0,29.73,WNW,286,1.0,8.0,28,0.00,,,0.00,179,weatherlink.com 1.10,2013-06-07 21:22:00,
2013-06-07 15:52:00,61.9,28.0,29.75,WNW,286,2.0,7.0,28,0.00,,,0.00,255,weatherlink.com 1.10,2013-06-07 21:52:00,
2013-06-07 16:07:00,60.2,33.0,29.76,West,277,2.0,9.0,36,0.00,,,0.00,352,weatherlink.com 1.10,2013-06-07 22:07:00,
2013-06-07 16:22:00,56.9,35.0,29.77,WNW,300,2.0,8.0,44,0.00,,,0.00,121,weatherlink.com 1.10,2013-06-07 22:22:00,
2013-06-07 16:37:00,56.3,35.0,29.75,West,260,1.0,6.0,45,0.00,,,0.00,105,weatherlink.com 1.10,2013-06-07 22:37:00,
2013-06-07 16:52:00,57.6,34.0,29.75,WNW,298,4.0,6.0,41,0.00,,,0.00,183,weatherlink.com 1.10,2013-06-07 22:52:00,
2013-06-07 17:22:00,58.1,35.0,29.74,West,269,0.0,1.0,42,0.00,,,0.00,107,weatherlink.com 1.10,2013-06-07 23:22:00,
2013-06-07 17:37:00,58.4,34.0,29.73,West,269,0.0,2.0,40,0.00,,,0.00,118,weatherlink.com 1.10,2013-06-07 23:37:00,
2013-06-07 17:52:00,58.2,33.0,29.71,NE,52,0.0,1.0,39,0.00,,,0.00,91,weatherlink.com 1.10,2013-06-07 23:52:00,
2013-06-07 18:07:00,58.3,33.0,29.71,NE,52,0.0,1.0,39,0.00,,,0.00,97,weatherlink.com 1.10,2013-06-08 00:07:00,
2013-06-07 18:22:00,58.8,34.0,29.70,ENE,62,0.0,2.0,39,0.00,,,0.00,111,weatherlink.com 1.10,2013-06-08 00:22:00,
2013-06-07 18:37:00,60.0,33.0,29.70,WNW,296,0.0,2.0,37,0.00,,,0.00,139,weatherlink.com 1.10,2013-06-08 00:37:00,
2013-06-07 18:52:00,59.3,35.0,29.70,WSW,254,0.0,3.0,41,0.00,,,0.00,195,weatherlink.com 1.10,2013-06-08 00:52:00,
2013-06-07 19:07:00,59.2,36.0,29.70,WNW,294,2.0,7.0,43,0.00,,,0.00,220,weatherlink.com 1.10,2013-06-08 01:07:00,
2013-06-07 19:37:00,57.3,40.0,29.69,NNE,29,1.0,2.0,52,0.00,,,0.00,53,weatherlink.com 1.10,2013-06-08 01:37:00,
2013-06-07 20:07:00,55.5,37.0,29.69,NNE,32,0.0,2.0,51,0.00,,,0.00,14,weatherlink.com 1.10,2013-06-08 02:07:00,
2013-06-07 20:22:00,54.0,38.0,29.69,NNE,32,0.0,0.0,55,0.00,,,0.00,0,weatherlink.com 1.10,2013-06-08 02:22:00,
2013-06-07 20:37:00,52.3,38.0,29.70,NNE,33,0.0,0.0,58,0.00,,,0.00,0,weatherlink.com 1.10,2013-06-08 02:37:00,
2013-06-07 20:52:00,51.5,35.0,29.69,NNE,32,0.0,0.0,53,0.00,,,0.00,0,weatherlink.com 1.10,2013-06-08 02:52:00,
2013-06-07 21:07:00,51.2,33.0,29.70,NNE,32,0.0,0.0,51,0.00,,,0.00,0,weatherlink.com 1.10,2013-06-08 03:07:00,
2013-06-07 21:22:00,51.2,33.0,29.70,NE,34,0.0,0.0,51,0.00,,,0.00,0,weatherlink.com 1.10,2013-06-08 03:22:00,
2013-06-07 21:37:00,50.6,33.0,29.70,ESE,115,0.0,2.0,51,0.00,,,0.00,0,weatherlink.com 1.10,2013-06-08 03:37:00,
2013-06-07 21:52:00,51.4,34.0,29.71,ESE,115,0.0,0.0,51,0.00,,,0.00,0,weatherlink.com 1.10,2013-06-08 03:52:00,
2013-06-07 22:07:00,50.5,32.0,29.71,ESE,115,0.0,0.0,50,0.00,,,0.00,0,weatherlink.com 1.10,2013-06-08 04:07:00,
2013-06-07 22:22:00,49.8,33.0,29.71,North,360,0.0,0.0,53,0.00,,,0.00,0,weatherlink.com 1.10,2013-06-08 04:22:00,
2013-06-07 22:37:00,49.4,34.0,29.71,North,360,0.0,0.0,56,0.00,,,0.00,0,weatherlink.com 1.10,2013-06-08 04:37:00,
2013-06-07 22:52:00,49.5,35.0,29.71,North,360,0.0,0.0,57,0.00,,,0.00,0,weatherlink.com 1.10,2013-06-08 04:52:00,
2013-06-07 23:07:00,49.0,36.0,29.72,North,360,0.0,0.0,62,0.00,,,0.00,0,weatherlink.com 1.10,2013-06-08 05:07:00,
2013-06-07 23:22:00,49.1,36.0,29.72,North,360,0.0,0.0,61,0.00,,,0.00,0,weatherlink.com 1.10,2013-06-08 05:22:00,
2013-06-07 23:37:00,48.3,34.0,29.72,North,360,0.0,0.0,58,0.00,,,0.00,0,weatherlink.com 1.10,2013-06-08 05:37:00,
2013-06-07 23:52:00,47.7,33.0,29.71,North,360,0.0,0.0,57,0.00,,,0.00,0,weatherlink.com 1.10,2013-06-08 05:52:00,